sensor_id;sensor_type;location;lat;lon;timestamp;P1;durP1;ratioP1;P2;durP2;ratioP2
59998;SDS011;45859;51.378;6.736;2023-08-08T00:00:52;8.33;;;4.13;;
59998;SDS011;45859;51.378;6.736;2023-08-08T00:03:17;6.93;;;5.17;;
59998;SDS011;45859;51.378;6.736;2023-08-08T00:05:43;8.70;;;4.80;;
59998;SDS011;45859;51.378;6.736;2023-08-08T00:08:08;5.53;;;5.03;;
59998;SDS011;45859;51.378;6.736;2023-08-08T00:10:34;6.70;;;6.00;;
59998;SDS011;45859;51.378;6.736;2023-08-08T00:12:59;6.73;;;5.90;;
59998;SDS011;45859;51.378;6.736;2023-08-08T00:15:26;7.10;;;5.90;;
59998;SDS011;45859;51.378;6.736;2023-08-08T00:17:51;6.37;;;5.30;;
59998;SDS011;45859;51.378;6.736;2023-08-08T00:20:17;6.23;;;4.63;;
59998;SDS011;45859;51.378;6.736;2023-08-08T00:22:43;5.93;;;4.60;;
59998;SDS011;45859;51.378;6.736;2023-08-08T00:25:08;5.70;;;4.77;;
59998;SDS011;45859;51.378;6.736;2023-08-08T00:27:34;3.80;;;3.40;;
59998;SDS011;45859;51.378;6.736;2023-08-08T00:30:00;7.60;;;4.67;;
59998;SDS011;45859;51.378;6.736;2023-08-08T00:32:26;5.03;;;3.80;;
59998;SDS011;45859;51.378;6.736;2023-08-08T00:34:51;6.17;;;3.60;;
59998;SDS011;45859;51.378;6.736;2023-08-08T00:37:17;5.20;;;3.80;;
59998;SDS011;45859;51.378;6.736;2023-08-08T00:39:43;12.73;;;8.03;;
59998;SDS011;45859;51.378;6.736;2023-08-08T00:42:11;18.03;;;10.57;;
59998;SDS011;45859;51.378;6.736;2023-08-08T00:44:37;13.47;;;7.80;;
59998;SDS011;45859;51.378;6.736;2023-08-08T00:47:03;12.23;;;8.70;;
59998;SDS011;45859;51.378;6.736;2023-08-08T00:49:29;11.17;;;6.93;;
59998;SDS011;45859;51.378;6.736;2023-08-08T00:51:55;12.47;;;6.73;;
59998;SDS011;45859;51.378;6.736;2023-08-08T00:54:20;14.50;;;8.77;;
59998;SDS011;45859;51.378;6.736;2023-08-08T00:56:46;14.63;;;8.57;;
59998;SDS011;45859;51.378;6.736;2023-08-08T00:59:12;16.57;;;9.33;;
59998;SDS011;45859;51.378;6.736;2023-08-08T01:01:40;9.57;;;6.30;;
59998;SDS011;45859;51.378;6.736;2023-08-08T01:04:06;8.80;;;5.50;;
59998;SDS011;45859;51.378;6.736;2023-08-08T01:09:27;8.53;;;4.80;;
59998;SDS011;45859;51.378;6.736;2023-08-08T01:11:59;7.20;;;4.40;;
59998;SDS011;45859;51.378;6.736;2023-08-08T01:14:26;7.47;;;4.80;;
59998;SDS011;45859;51.378;6.736;2023-08-08T01:16:54;8.93;;;4.93;;
59998;SDS011;45859;51.378;6.736;2023-08-08T01:19:23;7.90;;;4.33;;
59998;SDS011;45859;51.378;6.736;2023-08-08T01:21:52;4.07;;;2.17;;
59998;SDS011;45859;51.378;6.736;2023-08-08T01:24:22;8.03;;;5.67;;
59998;SDS011;45859;51.378;6.736;2023-08-08T01:26:50;10.87;;;6.13;;
59998;SDS011;45859;51.378;6.736;2023-08-08T01:29:16;8.83;;;5.87;;
59998;SDS011;45859;51.378;6.736;2023-08-08T01:31:41;12.40;;;6.87;;
59998;SDS011;45859;51.378;6.736;2023-08-08T01:34:07;12.80;;;6.77;;
59998;SDS011;45859;51.378;6.736;2023-08-08T01:36:46;8.10;;;5.73;;
59998;SDS011;45859;51.378;6.736;2023-08-08T01:39:13;8.50;;;3.27;;
59998;SDS011;45859;51.378;6.736;2023-08-08T01:41:41;11.80;;;2.57;;
59998;SDS011;45859;51.378;6.736;2023-08-08T01:44:09;8.97;;;5.30;;
59998;SDS011;45859;51.378;6.736;2023-08-08T01:46:35;10.23;;;7.07;;
59998;SDS011;45859;51.378;6.736;2023-08-08T01:49:03;9.13;;;4.77;;
59998;SDS011;45859;51.378;6.736;2023-08-08T01:51:29;7.97;;;4.47;;
59998;SDS011;45859;51.378;6.736;2023-08-08T01:53:54;11.33;;;6.37;;
59998;SDS011;45859;51.378;6.736;2023-08-08T01:56:20;8.60;;;5.97;;
59998;SDS011;45859;51.378;6.736;2023-08-08T01:58:46;8.83;;;4.47;;
59998;SDS011;45859;51.378;6.736;2023-08-08T02:01:12;11.53;;;5.53;;
59998;SDS011;45859;51.378;6.736;2023-08-08T02:03:37;17.27;;;10.13;;
59998;SDS011;45859;51.378;6.736;2023-08-08T02:06:03;26.77;;;14.37;;
59998;SDS011;45859;51.378;6.736;2023-08-08T02:08:28;18.97;;;10.30;;
59998;SDS011;45859;51.378;6.736;2023-08-08T02:10:54;17.70;;;8.63;;
59998;SDS011;45859;51.378;6.736;2023-08-08T02:13:20;10.87;;;5.50;;
59998;SDS011;45859;51.378;6.736;2023-08-08T02:15:45;7.47;;;3.83;;
59998;SDS011;45859;51.378;6.736;2023-08-08T02:18:11;20.77;;;11.43;;
59998;SDS011;45859;51.378;6.736;2023-08-08T02:20:36;28.20;;;12.57;;
59998;SDS011;45859;51.378;6.736;2023-08-08T02:23:02;17.10;;;9.70;;
59998;SDS011;45859;51.378;6.736;2023-08-08T02:25:28;21.17;;;12.07;;
59998;SDS011;45859;51.378;6.736;2023-08-08T02:27:55;11.63;;;4.93;;
59998;SDS011;45859;51.378;6.736;2023-08-08T02:30:21;11.80;;;4.70;;
59998;SDS011;45859;51.378;6.736;2023-08-08T02:32:47;19.27;;;7.00;;
59998;SDS011;45859;51.378;6.736;2023-08-08T02:35:13;11.80;;;7.10;;
59998;SDS011;45859;51.378;6.736;2023-08-08T02:37:38;15.03;;;8.30;;
59998;SDS011;45859;51.378;6.736;2023-08-08T02:40:05;24.20;;;14.90;;
59998;SDS011;45859;51.378;6.736;2023-08-08T02:42:31;16.80;;;9.97;;
59998;SDS011;45859;51.378;6.736;2023-08-08T02:44:57;16.37;;;9.27;;
59998;SDS011;45859;51.378;6.736;2023-08-08T02:47:22;13.33;;;8.13;;
59998;SDS011;45859;51.378;6.736;2023-08-08T02:49:48;14.53;;;7.47;;
59998;SDS011;45859;51.378;6.736;2023-08-08T02:52:14;14.87;;;7.90;;
59998;SDS011;45859;51.378;6.736;2023-08-08T02:54:40;16.73;;;9.60;;
59998;SDS011;45859;51.378;6.736;2023-08-08T02:57:05;18.80;;;8.70;;
59998;SDS011;45859;51.378;6.736;2023-08-08T02:59:31;14.43;;;7.40;;
59998;SDS011;45859;51.378;6.736;2023-08-08T03:01:56;15.23;;;9.03;;
59998;SDS011;45859;51.378;6.736;2023-08-08T03:04:22;12.73;;;7.83;;
59998;SDS011;45859;51.378;6.736;2023-08-08T03:06:48;18.33;;;8.03;;
59998;SDS011;45859;51.378;6.736;2023-08-08T03:09:13;14.17;;;7.90;;
59998;SDS011;45859;51.378;6.736;2023-08-08T03:11:39;17.00;;;7.40;;
59998;SDS011;45859;51.378;6.736;2023-08-08T03:14:07;12.03;;;6.80;;
59998;SDS011;45859;51.378;6.736;2023-08-08T03:16:33;13.87;;;7.67;;
59998;SDS011;45859;51.378;6.736;2023-08-08T03:18:59;15.73;;;8.27;;
59998;SDS011;45859;51.378;6.736;2023-08-08T03:21:25;10.87;;;7.83;;
59998;SDS011;45859;51.378;6.736;2023-08-08T03:23:50;11.07;;;7.47;;
59998;SDS011;45859;51.378;6.736;2023-08-08T03:26:16;10.73;;;7.67;;
59998;SDS011;45859;51.378;6.736;2023-08-08T03:28:42;13.43;;;7.90;;
59998;SDS011;45859;51.378;6.736;2023-08-08T03:31:07;13.07;;;7.90;;
59998;SDS011;45859;51.378;6.736;2023-08-08T03:33:33;15.30;;;9.53;;
59998;SDS011;45859;51.378;6.736;2023-08-08T03:35:58;14.37;;;9.57;;
59998;SDS011;45859;51.378;6.736;2023-08-08T03:38:24;17.73;;;11.10;;
59998;SDS011;45859;51.378;6.736;2023-08-08T03:40:50;19.07;;;12.20;;
59998;SDS011;45859;51.378;6.736;2023-08-08T03:43:16;23.30;;;13.83;;
59998;SDS011;45859;51.378;6.736;2023-08-08T03:45:41;22.47;;;12.63;;
59998;SDS011;45859;51.378;6.736;2023-08-08T03:48:07;27.90;;;12.47;;
59998;SDS011;45859;51.378;6.736;2023-08-08T03:50:33;20.57;;;11.97;;
59998;SDS011;45859;51.378;6.736;2023-08-08T03:52:58;24.13;;;12.00;;
59998;SDS011;45859;51.378;6.736;2023-08-08T03:55:24;22.33;;;11.10;;
59998;SDS011;45859;51.378;6.736;2023-08-08T03:57:50;20.23;;;10.50;;
59998;SDS011;45859;51.378;6.736;2023-08-08T04:00:16;19.87;;;8.97;;
59998;SDS011;45859;51.378;6.736;2023-08-08T04:02:42;22.13;;;11.50;;
59998;SDS011;45859;51.378;6.736;2023-08-08T04:05:07;19.67;;;10.20;;
59998;SDS011;45859;51.378;6.736;2023-08-08T04:07:34;21.53;;;9.00;;
59998;SDS011;45859;51.378;6.736;2023-08-08T04:10:00;21.27;;;9.53;;
59998;SDS011;45859;51.378;6.736;2023-08-08T04:12:25;20.47;;;10.47;;
59998;SDS011;45859;51.378;6.736;2023-08-08T04:14:51;12.40;;;5.83;;
59998;SDS011;45859;51.378;6.736;2023-08-08T04:17:17;11.63;;;5.30;;
59998;SDS011;45859;51.378;6.736;2023-08-08T04:19:42;10.70;;;6.27;;
59998;SDS011;45859;51.378;6.736;2023-08-08T04:22:08;10.37;;;5.17;;
59998;SDS011;45859;51.378;6.736;2023-08-08T04:24:34;11.90;;;5.43;;
59998;SDS011;45859;51.378;6.736;2023-08-08T04:27:00;16.10;;;6.27;;
59998;SDS011;45859;51.378;6.736;2023-08-08T04:29:25;16.27;;;7.17;;
59998;SDS011;45859;51.378;6.736;2023-08-08T04:31:51;12.37;;;5.63;;
59998;SDS011;45859;51.378;6.736;2023-08-08T04:34:17;12.40;;;5.93;;
59998;SDS011;45859;51.378;6.736;2023-08-08T04:36:42;7.97;;;5.50;;
59998;SDS011;45859;51.378;6.736;2023-08-08T04:39:08;15.53;;;6.33;;
59998;SDS011;45859;51.378;6.736;2023-08-08T04:41:33;18.53;;;9.20;;
59998;SDS011;45859;51.378;6.736;2023-08-08T04:43:59;23.83;;;11.27;;
59998;SDS011;45859;51.378;6.736;2023-08-08T04:46:25;14.83;;;7.60;;
59998;SDS011;45859;51.378;6.736;2023-08-08T04:48:50;12.83;;;6.80;;
59998;SDS011;45859;51.378;6.736;2023-08-08T04:51:16;12.30;;;7.57;;
59998;SDS011;45859;51.378;6.736;2023-08-08T04:53:41;15.20;;;8.27;;
59998;SDS011;45859;51.378;6.736;2023-08-08T04:56:07;14.57;;;7.70;;
59998;SDS011;45859;51.378;6.736;2023-08-08T04:58:33;12.87;;;7.63;;
59998;SDS011;45859;51.378;6.736;2023-08-08T05:00:58;11.73;;;6.87;;
59998;SDS011;45859;51.378;6.736;2023-08-08T05:03:24;16.00;;;7.77;;
59998;SDS011;45859;51.378;6.736;2023-08-08T05:05:50;25.27;;;14.67;;
59998;SDS011;45859;51.378;6.736;2023-08-08T05:08:16;20.27;;;11.70;;
59998;SDS011;45859;51.378;6.736;2023-08-08T05:10:41;23.03;;;11.07;;
59998;SDS011;45859;51.378;6.736;2023-08-08T05:13:08;22.50;;;9.77;;
59998;SDS011;45859;51.378;6.736;2023-08-08T05:15:34;20.70;;;10.43;;
59998;SDS011;45859;51.378;6.736;2023-08-08T05:17:59;17.63;;;8.10;;
59998;SDS011;45859;51.378;6.736;2023-08-08T05:20:25;13.03;;;8.07;;
59998;SDS011;45859;51.378;6.736;2023-08-08T05:22:51;15.03;;;6.93;;
59998;SDS011;45859;51.378;6.736;2023-08-08T05:25:16;13.87;;;7.23;;
59998;SDS011;45859;51.378;6.736;2023-08-08T05:27:42;21.07;;;9.00;;
59998;SDS011;45859;51.378;6.736;2023-08-08T05:30:08;28.70;;;13.80;;
59998;SDS011;45859;51.378;6.736;2023-08-08T05:32:33;19.27;;;11.97;;
59998;SDS011;45859;51.378;6.736;2023-08-08T05:34:59;26.73;;;15.10;;
59998;SDS011;45859;51.378;6.736;2023-08-08T05:37:25;30.77;;;15.70;;
59998;SDS011;45859;51.378;6.736;2023-08-08T05:39:51;21.90;;;11.10;;
59998;SDS011;45859;51.378;6.736;2023-08-08T05:42:18;21.90;;;11.27;;
59998;SDS011;45859;51.378;6.736;2023-08-08T05:44:43;28.40;;;15.97;;
59998;SDS011;45859;51.378;6.736;2023-08-08T05:47:09;26.87;;;13.93;;
59998;SDS011;45859;51.378;6.736;2023-08-08T05:49:35;28.30;;;16.80;;
59998;SDS011;45859;51.378;6.736;2023-08-08T05:52:01;34.40;;;18.60;;
59998;SDS011;45859;51.378;6.736;2023-08-08T05:54:27;31.47;;;17.70;;
59998;SDS011;45859;51.378;6.736;2023-08-08T05:56:53;24.33;;;16.07;;
59998;SDS011;45859;51.378;6.736;2023-08-08T05:59:19;27.63;;;14.00;;
59998;SDS011;45859;51.378;6.736;2023-08-08T06:01:45;23.03;;;13.40;;
59998;SDS011;45859;51.378;6.736;2023-08-08T06:04:11;21.33;;;13.70;;
59998;SDS011;45859;51.378;6.736;2023-08-08T06:06:37;36.67;;;19.60;;
59998;SDS011;45859;51.378;6.736;2023-08-08T06:09:03;27.43;;;17.53;;
59998;SDS011;45859;51.378;6.736;2023-08-08T06:11:29;24.67;;;15.73;;
59998;SDS011;45859;51.378;6.736;2023-08-08T06:13:55;18.40;;;13.60;;
59998;SDS011;45859;51.378;6.736;2023-08-08T06:16:21;20.87;;;13.50;;
59998;SDS011;45859;51.378;6.736;2023-08-08T06:18:47;27.10;;;19.00;;
59998;SDS011;45859;51.378;6.736;2023-08-08T06:21:13;26.63;;;17.57;;
59998;SDS011;45859;51.378;6.736;2023-08-08T06:23:38;22.57;;;18.03;;
59998;SDS011;45859;51.378;6.736;2023-08-08T06:26:04;21.13;;;13.97;;
59998;SDS011;45859;51.378;6.736;2023-08-08T06:28:30;19.40;;;14.33;;
59998;SDS011;45859;51.378;6.736;2023-08-08T06:30:57;26.70;;;14.93;;
59998;SDS011;45859;51.378;6.736;2023-08-08T06:33:23;22.47;;;14.47;;
59998;SDS011;45859;51.378;6.736;2023-08-08T06:35:48;14.40;;;11.93;;
59998;SDS011;45859;51.378;6.736;2023-08-08T06:38:14;18.10;;;14.20;;
59998;SDS011;45859;51.378;6.736;2023-08-08T06:40:40;16.73;;;12.33;;
59998;SDS011;45859;51.378;6.736;2023-08-08T06:43:06;16.30;;;11.13;;
59998;SDS011;45859;51.378;6.736;2023-08-08T06:45:31;19.63;;;13.00;;
59998;SDS011;45859;51.378;6.736;2023-08-08T06:47:57;19.50;;;13.00;;
59998;SDS011;45859;51.378;6.736;2023-08-08T06:50:23;23.02;;;14.48;;
59998;SDS011;45859;51.378;6.736;2023-08-08T06:52:49;23.52;;;13.23;;
59998;SDS011;45859;51.378;6.736;2023-08-08T06:55:15;25.00;;;13.55;;
59998;SDS011;45859;51.378;6.736;2023-08-08T06:57:41;17.45;;;12.93;;
59998;SDS011;45859;51.378;6.736;2023-08-08T07:00:07;22.55;;;13.82;;
59998;SDS011;45859;51.378;6.736;2023-08-08T07:02:34;27.60;;;15.93;;
59998;SDS011;45859;51.378;6.736;2023-08-08T07:05:00;30.08;;;15.23;;
59998;SDS011;45859;51.378;6.736;2023-08-08T07:07:25;22.45;;;13.40;;
59998;SDS011;45859;51.378;6.736;2023-08-08T07:09:51;20.45;;;11.95;;
59998;SDS011;45859;51.378;6.736;2023-08-08T07:12:17;13.82;;;9.57;;
59998;SDS011;45859;51.378;6.736;2023-08-08T07:14:43;12.73;;;8.75;;
59998;SDS011;45859;51.378;6.736;2023-08-08T07:17:08;13.18;;;7.72;;
59998;SDS011;45859;51.378;6.736;2023-08-08T07:19:35;15.93;;;8.93;;
59998;SDS011;45859;51.378;6.736;2023-08-08T07:22:01;14.15;;;8.32;;
59998;SDS011;45859;51.378;6.736;2023-08-08T07:24:27;12.27;;;7.95;;
59998;SDS011;45859;51.378;6.736;2023-08-08T07:26:54;17.92;;;8.65;;
59998;SDS011;45859;51.378;6.736;2023-08-08T07:29:21;12.35;;;6.95;;
59998;SDS011;45859;51.378;6.736;2023-08-08T07:31:46;13.70;;;7.97;;
59998;SDS011;45859;51.378;6.736;2023-08-08T07:34:12;14.95;;;7.93;;
59998;SDS011;45859;51.378;6.736;2023-08-08T07:36:38;12.93;;;7.18;;
59998;SDS011;45859;51.378;6.736;2023-08-08T07:39:03;12.98;;;6.32;;
59998;SDS011;45859;51.378;6.736;2023-08-08T07:41:30;9.38;;;5.55;;
59998;SDS011;45859;51.378;6.736;2023-08-08T07:43:57;15.15;;;6.72;;
59998;SDS011;45859;51.378;6.736;2023-08-08T07:46:22;13.43;;;6.85;;
59998;SDS011;45859;51.378;6.736;2023-08-08T07:48:48;13.55;;;6.93;;
59998;SDS011;45859;51.378;6.736;2023-08-08T07:51:14;12.00;;;6.63;;
59998;SDS011;45859;51.378;6.736;2023-08-08T07:53:40;12.50;;;5.57;;
59998;SDS011;45859;51.378;6.736;2023-08-08T07:56:05;8.70;;;5.50;;
59998;SDS011;45859;51.378;6.736;2023-08-08T07:58:31;11.80;;;6.43;;
59998;SDS011;45859;51.378;6.736;2023-08-08T08:00:57;15.75;;;7.05;;
59998;SDS011;45859;51.378;6.736;2023-08-08T08:03:25;11.88;;;6.38;;
59998;SDS011;45859;51.378;6.736;2023-08-08T08:05:52;12.48;;;5.78;;
59998;SDS011;45859;51.378;6.736;2023-08-08T08:08:18;10.60;;;5.65;;
59998;SDS011;45859;51.378;6.736;2023-08-08T08:10:43;10.20;;;4.03;;
59998;SDS011;45859;51.378;6.736;2023-08-08T08:13:10;8.93;;;4.07;;
59998;SDS011;45859;51.378;6.736;2023-08-08T08:15:37;9.95;;;4.85;;
59998;SDS011;45859;51.378;6.736;2023-08-08T08:18:03;17.80;;;7.55;;
59998;SDS011;45859;51.378;6.736;2023-08-08T08:20:29;14.68;;;7.47;;
59998;SDS011;45859;51.378;6.736;2023-08-08T08:22:55;14.50;;;6.13;;
59998;SDS011;45859;51.378;6.736;2023-08-08T08:25:20;9.98;;;5.20;;
59998;SDS011;45859;51.378;6.736;2023-08-08T08:27:46;6.72;;;3.20;;
59998;SDS011;45859;51.378;6.736;2023-08-08T08:30:12;14.75;;;5.47;;
59998;SDS011;45859;51.378;6.736;2023-08-08T08:32:39;11.10;;;4.50;;
59998;SDS011;45859;51.378;6.736;2023-08-08T08:35:06;9.15;;;4.97;;
59998;SDS011;45859;51.378;6.736;2023-08-08T08:37:33;9.57;;;3.53;;
59998;SDS011;45859;51.378;6.736;2023-08-08T08:39:59;11.18;;;3.80;;
59998;SDS011;45859;51.378;6.736;2023-08-08T08:42:26;7.60;;;4.10;;
59998;SDS011;45859;51.378;6.736;2023-08-08T08:44:54;18.83;;;7.68;;
59998;SDS011;45859;51.378;6.736;2023-08-08T08:47:23;14.27;;;7.13;;
59998;SDS011;45859;51.378;6.736;2023-08-08T08:49:51;13.68;;;5.20;;
59998;SDS011;45859;51.378;6.736;2023-08-08T08:52:17;9.75;;;3.60;;
59998;SDS011;45859;51.378;6.736;2023-08-08T08:54:43;8.15;;;4.13;;
59998;SDS011;45859;51.378;6.736;2023-08-08T08:57:09;11.40;;;4.15;;
59998;SDS011;45859;51.378;6.736;2023-08-08T08:59:35;8.88;;;4.63;;
59998;SDS011;45859;51.378;6.736;2023-08-08T09:02:01;6.82;;;3.47;;
59998;SDS011;45859;51.378;6.736;2023-08-08T09:04:27;8.80;;;4.00;;
59998;SDS011;45859;51.378;6.736;2023-08-08T09:06:54;10.23;;;3.67;;
59998;SDS011;45859;51.378;6.736;2023-08-08T09:09:20;8.02;;;3.40;;
59998;SDS011;45859;51.378;6.736;2023-08-08T09:11:48;4.85;;;2.40;;
59998;SDS011;45859;51.378;6.736;2023-08-08T09:14:16;6.53;;;2.65;;
59998;SDS011;45859;51.378;6.736;2023-08-08T09:16:44;8.55;;;3.15;;
59998;SDS011;45859;51.378;6.736;2023-08-08T09:19:11;4.72;;;2.53;;
59998;SDS011;45859;51.378;6.736;2023-08-08T09:21:37;5.95;;;2.53;;
59998;SDS011;45859;51.378;6.736;2023-08-08T09:24:03;7.15;;;2.95;;
59998;SDS011;45859;51.378;6.736;2023-08-08T09:26:29;13.43;;;5.20;;
59998;SDS011;45859;51.378;6.736;2023-08-08T09:28:55;8.50;;;3.22;;
59998;SDS011;45859;51.378;6.736;2023-08-08T09:31:20;8.50;;;2.78;;
59998;SDS011;45859;51.378;6.736;2023-08-08T09:33:46;14.30;;;4.57;;
59998;SDS011;45859;51.378;6.736;2023-08-08T09:36:17;8.07;;;3.28;;
59998;SDS011;45859;51.378;6.736;2023-08-08T09:38:44;7.40;;;2.90;;
59998;SDS011;45859;51.378;6.736;2023-08-08T09:41:10;8.70;;;2.78;;
59998;SDS011;45859;51.378;6.736;2023-08-08T09:43:37;7.97;;;2.50;;
59998;SDS011;45859;51.378;6.736;2023-08-08T09:46:02;6.95;;;2.20;;
59998;SDS011;45859;51.378;6.736;2023-08-08T09:48:31;6.38;;;2.40;;
59998;SDS011;45859;51.378;6.736;2023-08-08T09:50:58;9.35;;;3.05;;
59998;SDS011;45859;51.378;6.736;2023-08-08T09:53:28;8.45;;;3.33;;
59998;SDS011;45859;51.378;6.736;2023-08-08T09:55:54;6.75;;;4.57;;
59998;SDS011;45859;51.378;6.736;2023-08-08T09:58:21;8.25;;;4.10;;
59998;SDS011;45859;51.378;6.736;2023-08-08T10:00:49;4.88;;;2.95;;
59998;SDS011;45859;51.378;6.736;2023-08-08T10:03:15;6.22;;;3.45;;
59998;SDS011;45859;51.378;6.736;2023-08-08T10:05:42;6.15;;;2.63;;
59998;SDS011;45859;51.378;6.736;2023-08-08T10:08:11;6.35;;;2.47;;
59998;SDS011;45859;51.378;6.736;2023-08-08T10:10:40;6.70;;;2.75;;
59998;SDS011;45859;51.378;6.736;2023-08-08T10:13:07;10.98;;;4.57;;
59998;SDS011;45859;51.378;6.736;2023-08-08T10:15:36;12.75;;;5.00;;
59998;SDS011;45859;51.378;6.736;2023-08-08T10:18:02;8.63;;;2.90;;
59998;SDS011;45859;51.378;6.736;2023-08-08T10:20:30;5.53;;;2.35;;
59998;SDS011;45859;51.378;6.736;2023-08-08T10:22:59;6.68;;;2.28;;
59998;SDS011;45859;51.378;6.736;2023-08-08T10:25:28;5.60;;;2.80;;
59998;SDS011;45859;51.378;6.736;2023-08-08T10:30:29;6.43;;;2.13;;
59998;SDS011;45859;51.378;6.736;2023-08-08T10:32:56;5.38;;;2.20;;
59998;SDS011;45859;51.378;6.736;2023-08-08T10:35:24;6.78;;;3.38;;
59998;SDS011;45859;51.378;6.736;2023-08-08T10:38:01;7.15;;;3.05;;
59998;SDS011;45859;51.378;6.736;2023-08-08T10:40:33;7.50;;;3.45;;
59998;SDS011;45859;51.378;6.736;2023-08-08T10:42:59;9.10;;;3.92;;
59998;SDS011;45859;51.378;6.736;2023-08-08T10:45:34;6.38;;;3.10;;
59998;SDS011;45859;51.378;6.736;2023-08-08T10:48:07;19.85;;;8.57;;
59998;SDS011;45859;51.378;6.736;2023-08-08T10:50:33;12.02;;;6.15;;
59998;SDS011;45859;51.378;6.736;2023-08-08T10:53:04;6.15;;;3.13;;
59998;SDS011;45859;51.378;6.736;2023-08-08T10:55:37;6.63;;;2.17;;
59998;SDS011;45859;51.378;6.736;2023-08-08T10:58:09;5.93;;;2.53;;
59998;SDS011;45859;51.378;6.736;2023-08-08T11:00:40;7.95;;;2.70;;
59998;SDS011;45859;51.378;6.736;2023-08-08T11:03:06;4.97;;;2.20;;
59998;SDS011;45859;51.378;6.736;2023-08-08T11:05:34;6.55;;;2.83;;
59998;SDS011;45859;51.378;6.736;2023-08-08T11:08:01;12.07;;;5.00;;
59998;SDS011;45859;51.378;6.736;2023-08-08T11:10:28;21.20;;;8.07;;
59998;SDS011;45859;51.378;6.736;2023-08-08T11:13:04;9.43;;;4.20;;
59998;SDS011;45859;51.378;6.736;2023-08-08T11:15:34;6.32;;;3.20;;
59998;SDS011;45859;51.378;6.736;2023-08-08T11:18:01;9.00;;;3.47;;
59998;SDS011;45859;51.378;6.736;2023-08-08T11:20:32;8.38;;;4.40;;
59998;SDS011;45859;51.378;6.736;2023-08-08T11:22:59;8.88;;;3.75;;
59998;SDS011;45859;51.378;6.736;2023-08-08T11:25:26;8.98;;;4.05;;
59998;SDS011;45859;51.378;6.736;2023-08-08T11:27:53;10.35;;;5.13;;
59998;SDS011;45859;51.378;6.736;2023-08-08T11:30:20;14.45;;;8.07;;
59998;SDS011;45859;51.378;6.736;2023-08-08T11:32:47;17.15;;;8.48;;
59998;SDS011;45859;51.378;6.736;2023-08-08T11:35:20;7.75;;;4.55;;
59998;SDS011;45859;51.378;6.736;2023-08-08T11:37:49;9.90;;;3.22;;
59998;SDS011;45859;51.378;6.736;2023-08-08T11:40:17;8.88;;;3.00;;
59998;SDS011;45859;51.378;6.736;2023-08-08T11:42:45;10.10;;;3.78;;
59998;SDS011;45859;51.378;6.736;2023-08-08T11:45:12;13.18;;;4.68;;
59998;SDS011;45859;51.378;6.736;2023-08-08T11:47:41;4.95;;;3.17;;
59998;SDS011;45859;51.378;6.736;2023-08-08T11:50:08;6.45;;;2.53;;
59998;SDS011;45859;51.378;6.736;2023-08-08T11:52:35;4.72;;;2.38;;
59998;SDS011;45859;51.378;6.736;2023-08-08T11:55:11;4.95;;;2.30;;
59998;SDS011;45859;51.378;6.736;2023-08-08T11:57:38;5.73;;;2.60;;
59998;SDS011;45859;51.378;6.736;2023-08-08T12:00:08;6.97;;;2.38;;
59998;SDS011;45859;51.378;6.736;2023-08-08T12:02:38;4.60;;;2.28;;
59998;SDS011;45859;51.378;6.736;2023-08-08T12:05:14;5.70;;;2.42;;
59998;SDS011;45859;51.378;6.736;2023-08-08T12:07:46;3.47;;;1.90;;
59998;SDS011;45859;51.378;6.736;2023-08-08T12:10:19;6.22;;;3.28;;
59998;SDS011;45859;51.378;6.736;2023-08-08T12:12:51;9.27;;;3.65;;
59998;SDS011;45859;51.378;6.736;2023-08-08T12:15:20;9.93;;;4.00;;
59998;SDS011;45859;51.378;6.736;2023-08-08T12:17:45;7.72;;;3.60;;
59998;SDS011;45859;51.378;6.736;2023-08-08T12:20:11;18.58;;;7.10;;
59998;SDS011;45859;51.378;6.736;2023-08-08T12:22:39;8.77;;;4.35;;
59998;SDS011;45859;51.378;6.736;2023-08-08T12:25:05;7.30;;;3.35;;
59998;SDS011;45859;51.378;6.736;2023-08-08T12:27:31;5.70;;;2.72;;
59998;SDS011;45859;51.378;6.736;2023-08-08T12:29:57;5.40;;;2.50;;
59998;SDS011;45859;51.378;6.736;2023-08-08T12:32:25;5.82;;;3.40;;
59998;SDS011;45859;51.378;6.736;2023-08-08T12:37:19;7.00;;;3.60;;
59998;SDS011;45859;51.378;6.736;2023-08-08T12:39:45;11.18;;;3.13;;
59998;SDS011;45859;51.378;6.736;2023-08-08T12:42:10;5.85;;;2.50;;
59998;SDS011;45859;51.378;6.736;2023-08-08T12:44:36;5.72;;;2.63;;
59998;SDS011;45859;51.378;6.736;2023-08-08T12:47:02;5.53;;;2.70;;
59998;SDS011;45859;51.378;6.736;2023-08-08T12:49:27;6.25;;;2.38;;
59998;SDS011;45859;51.378;6.736;2023-08-08T12:51:53;3.22;;;2.28;;
59998;SDS011;45859;51.378;6.736;2023-08-08T12:54:20;7.05;;;3.67;;
59998;SDS011;45859;51.378;6.736;2023-08-08T12:56:47;5.13;;;3.72;;
59998;SDS011;45859;51.378;6.736;2023-08-08T12:59:13;5.88;;;2.85;;
59998;SDS011;45859;51.378;6.736;2023-08-08T13:01:39;6.10;;;2.55;;
59998;SDS011;45859;51.378;6.736;2023-08-08T13:04:04;7.43;;;3.10;;
59998;SDS011;45859;51.378;6.736;2023-08-08T13:06:30;7.00;;;3.13;;
59998;SDS011;45859;51.378;6.736;2023-08-08T13:08:56;3.88;;;2.35;;
59998;SDS011;45859;51.378;6.736;2023-08-08T13:11:22;5.80;;;2.40;;
59998;SDS011;45859;51.378;6.736;2023-08-08T13:13:48;4.10;;;2.28;;
59998;SDS011;45859;51.378;6.736;2023-08-08T13:16:13;6.82;;;2.95;;
59998;SDS011;45859;51.378;6.736;2023-08-08T13:18:39;3.88;;;2.30;;
59998;SDS011;45859;51.378;6.736;2023-08-08T13:21:05;4.88;;;2.55;;
59998;SDS011;45859;51.378;6.736;2023-08-08T13:23:31;4.55;;;2.08;;
59998;SDS011;45859;51.378;6.736;2023-08-08T13:25:57;8.73;;;2.10;;
59998;SDS011;45859;51.378;6.736;2023-08-08T13:28:23;3.25;;;1.83;;
59998;SDS011;45859;51.378;6.736;2023-08-08T13:30:49;3.60;;;1.75;;
59998;SDS011;45859;51.378;6.736;2023-08-08T13:33:15;4.47;;;1.55;;
59998;SDS011;45859;51.378;6.736;2023-08-08T13:35:40;4.38;;;1.70;;
59998;SDS011;45859;51.378;6.736;2023-08-08T13:38:06;3.35;;;1.50;;
59998;SDS011;45859;51.378;6.736;2023-08-08T13:40:33;3.92;;;1.83;;
59998;SDS011;45859;51.378;6.736;2023-08-08T13:42:58;4.53;;;1.83;;
59998;SDS011;45859;51.378;6.736;2023-08-08T13:45:24;3.42;;;1.83;;
59998;SDS011;45859;51.378;6.736;2023-08-08T13:47:50;9.35;;;3.13;;
59998;SDS011;45859;51.378;6.736;2023-08-08T13:50:15;5.28;;;2.03;;
59998;SDS011;45859;51.378;6.736;2023-08-08T13:52:41;2.60;;;1.73;;
59998;SDS011;45859;51.378;6.736;2023-08-08T13:55:07;3.70;;;1.90;;
59998;SDS011;45859;51.378;6.736;2023-08-08T13:57:34;4.82;;;2.05;;
59998;SDS011;45859;51.378;6.736;2023-08-08T14:00:00;4.35;;;2.00;;
59998;SDS011;45859;51.378;6.736;2023-08-08T14:02:28;4.25;;;1.95;;
59998;SDS011;45859;51.378;6.736;2023-08-08T14:04:54;5.03;;;1.60;;
59998;SDS011;45859;51.378;6.736;2023-08-08T14:07:20;2.70;;;1.60;;
59998;SDS011;45859;51.378;6.736;2023-08-08T14:09:46;4.18;;;1.75;;
59998;SDS011;45859;51.378;6.736;2023-08-08T14:12:12;9.10;;;1.92;;
59998;SDS011;45859;51.378;6.736;2023-08-08T14:14:38;3.95;;;1.60;;
59998;SDS011;45859;51.378;6.736;2023-08-08T14:17:04;2.63;;;1.45;;
59998;SDS011;45859;51.378;6.736;2023-08-08T14:19:29;2.88;;;1.60;;
59998;SDS011;45859;51.378;6.736;2023-08-08T14:21:55;3.13;;;1.85;;
59998;SDS011;45859;51.378;6.736;2023-08-08T14:24:21;2.13;;;1.50;;
59998;SDS011;45859;51.378;6.736;2023-08-08T14:26:47;2.78;;;1.58;;
59998;SDS011;45859;51.378;6.736;2023-08-08T14:29:12;3.22;;;1.83;;
59998;SDS011;45859;51.378;6.736;2023-08-08T14:31:38;1.98;;;1.25;;
59998;SDS011;45859;51.378;6.736;2023-08-08T14:34:04;3.58;;;1.52;;
59998;SDS011;45859;51.378;6.736;2023-08-08T14:36:30;3.38;;;1.80;;
59998;SDS011;45859;51.378;6.736;2023-08-08T14:38:55;2.78;;;1.48;;
59998;SDS011;45859;51.378;6.736;2023-08-08T14:41:21;4.72;;;1.50;;